Time;durP1;ratioP1;P1;durP2;ratioP2;P2;SDS_P1;SDS_P2;PMS_P1;PMS_P2;Temp;Humidity;BMP_temperature;BMP_pressure;BME280_temperature;BME280_humidity;BME280_pressure;Samples;Min_cycle;Max_cycle;Signal;HPM_P1;HPM_P2
2021/08/21 00:00:39;;;;;;;18.70;11.35;;;;;;;;;;5048441;28;20116;-58
2021/08/21 00:03:08;;;;;;;17.90;11.05;;;;;;;;;;5049147;28;20036;-59
2021/08/21 00:05:35;;;;;;;17.98;11.00;;;;;;;;;;5045293;28;20122;-59
2021/08/21 00:08:01;;;;;;;14.52;10.07;;;;;;;;;;5047915;28;20033;-59
2021/08/21 00:10:28;;;;;;;16.48;10.63;;;;;;;;;;5047578;28;20040;-59
2021/08/21 00:12:54;;;;;;;15.50;10.00;;;;;;;;;;5045649;28;20086;-59
2021/08/21 00:15:20;;;;;;;15.32;9.93;;;;;;;;;;5047067;28;20025;-59
2021/08/21 00:17:47;;;;;;;15.27;10.43;;;;;;;;;;5048113;28;20036;-59
2021/08/21 00:20:12;;;;;;;20.45;12.80;;;;;;;;;;5063293;28;20368;-59
2021/08/21 00:22:38;;;;;;;20.77;12.40;;;;;;;;;;5044553;28;20021;-59
2021/08/21 00:25:04;;;;;;;19.70;12.80;;;;;;;;;;5046596;28;20025;-59
2021/08/21 00:27:29;;;;;;;21.00;12.45;;;;;;;;;;5047483;28;20440;-59
2021/08/21 00:29:55;;;;;;;17.65;12.15;;;;;;;;;;5045849;28;20028;-59
2021/08/21 00:32:20;;;;;;;21.10;13.25;;;;;;;;;;5046820;28;20037;-59
2021/08/21 00:34:46;;;;;;;23.30;13.90;;;;;;;;;;5046227;28;20044;-59
2021/08/21 00:37:12;;;;;;;22.08;13.38;;;;;;;;;;5047680;28;20020;-59
2021/08/21 00:39:37;;;;;;;24.60;15.23;;;;;;;;;;5048288;28;20039;-59
2021/08/21 00:42:04;;;;;;;29.33;16.65;;;;;;;;;;5040158;28;20547;-59
2021/08/21 00:44:31;;;;;;;32.67;18.30;;;;;;;;;;5062241;28;20124;-59
2021/08/21 00:47:10;;;;;;;33.80;19.08;;;;;;;;;;5047710;28;20029;-59
2021/08/21 00:49:37;;;;;;;43.55;23.42;;;;;;;;;;5046283;28;20478;-59
2021/08/21 00:52:05;;;;;;;42.38;23.08;;;;;;;;;;5043241;28;20487;-59
2021/08/21 00:54:30;;;;;;;39.85;22.48;;;;;;;;;;5047098;28;20041;-59
2021/08/21 00:56:58;;;;;;;39.15;21.48;;;;;;;;;;5048480;28;20029;-59
2021/08/21 00:59:24;;;;;;;35.78;20.35;;;;;;;;;;5046595;28;20558;-59
2021/08/21 01:01:49;;;;;;;38.55;18.52;;;;;;;;;;5048613;28;20124;-60
2021/08/21 01:04:15;;;;;;;30.27;17.55;;;;;;;;;;5046038;28;20078;-60
2021/08/21 01:06:40;;;;;;;24.05;13.07;;;;;;;;;;5060496;28;20033;-59
2021/08/21 01:09:06;;;;;;;23.30;11.93;;;;;;;;;;5052215;28;20039;-59
2021/08/21 01:11:32;;;;;;;23.15;12.70;;;;;;;;;;5045889;28;20028;-59
2021/08/21 01:13:59;;;;;;;21.83;11.70;;;;;;;;;;5046170;28;20487;-60
2021/08/21 01:16:26;;;;;;;20.33;10.68;;;;;;;;;;5045271;28;20028;-59
2021/08/21 01:18:53;;;;;;;19.40;10.60;;;;;;;;;;5046551;28;20033;-59
2021/08/21 01:21:18;;;;;;;21.33;11.50;;;;;;;;;;5043571;28;20032;-59
2021/08/21 01:23:45;;;;;;;23.63;12.73;;;;;;;;;;5046694;28;20487;-59
2021/08/21 01:26:12;;;;;;;21.58;11.30;;;;;;;;;;5044927;28;20025;-59
2021/08/21 01:28:38;;;;;;;18.42;9.70;;;;;;;;;;5043774;28;20415;-59
2021/08/21 01:31:04;;;;;;;18.55;9.18;;;;;;;;;;5045231;28;20032;-59
2021/08/21 01:33:32;;;;;;;16.15;8.70;;;;;;;;;;5045158;28;20052;-59
2021/08/21 01:35:57;;;;;;;12.32;8.18;;;;;;;;;;5046083;28;20028;-59
2021/08/21 01:38:22;;;;;;;12.48;8.23;;;;;;;;;;5046273;28;20447;-59
2021/08/21 01:40:53;;;;;;;20.38;10.10;;;;;;;;;;5046170;28;20483;-59
2021/08/21 01:43:19;;;;;;;17.17;10.35;;;;;;;;;;5044705;28;20495;-59
2021/08/21 01:45:45;;;;;;;17.75;10.00;;;;;;;;;;5046456;28;20047;-59
2021/08/21 01:48:12;;;;;;;19.05;10.60;;;;;;;;;;5043828;28;20041;-59
2021/08/21 01:50:38;;;;;;;20.05;10.80;;;;;;;;;;5049500;28;20403;-59
2021/08/21 01:53:03;;;;;;;17.23;10.15;;;;;;;;;;5064592;28;20524;-59
2021/08/21 01:55:29;;;;;;;16.42;9.80;;;;;;;;;;5049869;28;20136;-59
2021/08/21 01:57:55;;;;;;;15.48;10.25;;;;;;;;;;5050138;28;20056;-59
2021/08/21 02:00:27;;;;;;;20.45;11.68;;;;;;;;;;5047787;28;20033;-59
2021/08/21 02:02:54;;;;;;;21.48;12.82;;;;;;;;;;5047969;28;20218;-59
2021/08/21 02:05:19;;;;;;;29.42;13.40;;;;;;;;;;5049222;28;20515;-59
2021/08/21 02:07:45;;;;;;;18.90;11.75;;;;;;;;;;5048299;28;20037;-59
2021/08/21 02:10:10;;;;;;;21.80;11.95;;;;;;;;;;5049850;28;20028;-59
2021/08/21 02:12:36;;;;;;;20.90;11.93;;;;;;;;;;5048549;28;20025;-59
2021/08/21 02:15:07;;;;;;;22.58;12.23;;;;;;;;;;5050215;28;20064;-59
2021/08/21 02:17:32;;;;;;;22.05;11.88;;;;;;;;;;5046515;28;20545;-59
2021/08/21 02:19:57;;;;;;;24.50;11.63;;;;;;;;;;5048323;28;20028;-59
2021/08/21 02:22:23;;;;;;;20.65;10.95;;;;;;;;;;5046416;28;20028;-59
2021/08/21 02:24:52;;;;;;;17.88;10.40;;;;;;;;;;5049016;28;20021;-59
2021/08/21 02:27:22;;;;;;;20.65;9.93;;;;;;;;;;5048781;28;20112;-59
2021/08/21 02:29:48;;;;;;;16.17;9.43;;;;;;;;;;5049314;28;20025;-59
2021/08/21 02:32:13;;;;;;;20.35;10.23;;;;;;;;;;5053409;28;20142;-60
2021/08/21 02:34:39;;;;;;;18.73;10.05;;;;;;;;;;5048720;28;20040;-60
2021/08/21 02:37:05;;;;;;;19.35;10.38;;;;;;;;;;5048481;28;20125;-60
2021/08/21 02:39:30;;;;;;;19.15;10.77;;;;;;;;;;5052461;28;20029;-60
2021/08/21 02:41:56;;;;;;;17.55;10.32;;;;;;;;;;5050359;28;20024;-61
2021/08/21 02:44:21;;;;;;;18.48;11.30;;;;;;;;;;5049208;28;20502;-61
2021/08/21 02:46:47;;;;;;;18.15;9.85;;;;;;;;;;5048251;28;20052;-61
2021/08/21 02:49:12;;;;;;;17.35;9.95;;;;;;;;;;5050395;28;20047;-60
2021/08/21 02:51:38;;;;;;;18.08;9.80;;;;;;;;;;5047766;28;20131;-61
2021/08/21 02:54:04;;;;;;;17.48;9.57;;;;;;;;;;5052496;28;20021;-60
2021/08/21 02:56:29;;;;;;;21.55;10.40;;;;;;;;;;5046536;28;20029;-60
2021/08/21 02:58:54;;;;;;;15.68;8.68;;;;;;;;;;5045968;28;20028;-58
2021/08/21 03:01:20;;;;;;;14.38;8.00;;;;;;;;;;5048256;28;20040;-59
2021/08/21 03:03:45;;;;;;;16.83;9.25;;;;;;;;;;5048797;28;20110;-60
2021/08/21 03:06:11;;;;;;;16.23;9.23;;;;;;;;;;5047545;28;20025;-61
2021/08/21 03:08:36;;;;;;;14.88;9.30;;;;;;;;;;5047531;28;20404;-60
2021/08/21 03:11:02;;;;;;;17.33;10.00;;;;;;;;;;5049512;28;20035;-60
2021/08/21 03:13:27;;;;;;;15.43;9.10;;;;;;;;;;5048838;28;20495;-60
2021/08/21 03:15:53;;;;;;;14.70;8.75;;;;;;;;;;5047448;28;20486;-61
2021/08/21 03:18:18;;;;;;;15.68;8.57;;;;;;;;;;5046594;28;20033;-60
2021/08/21 03:20:44;;;;;;;15.93;8.98;;;;;;;;;;5048973;28;20044;-61
2021/08/21 03:23:09;;;;;;;14.38;9.00;;;;;;;;;;5048010;28;20023;-61
2021/08/21 03:25:34;;;;;;;13.55;8.13;;;;;;;;;;5047780;28;20033;-60
2021/08/21 03:28:00;;;;;;;13.85;8.82;;;;;;;;;;5046233;28;20996;-60
2021/08/21 03:30:26;;;;;;;14.85;8.82;;;;;;;;;;5052431;28;20054;-61
2021/08/21 03:32:51;;;;;;;17.40;9.27;;;;;;;;;;5046854;28;20561;-60
2021/08/21 03:35:16;;;;;;;14.93;8.95;;;;;;;;;;5047892;28;20028;-61
2021/08/21 03:37:42;;;;;;;17.65;9.43;;;;;;;;;;5047766;28;20044;-60
2021/08/21 03:40:08;;;;;;;23.10;9.68;;;;;;;;;;5047798;28;20120;-60
2021/08/21 03:42:34;;;;;;;16.25;9.80;;;;;;;;;;5047727;28;20029;-61
2021/08/21 03:44:59;;;;;;;15.68;8.88;;;;;;;;;;5048044;28;20032;-60
2021/08/21 03:47:25;;;;;;;16.80;9.52;;;;;;;;;;5049920;28;20033;-60
2021/08/21 03:49:50;;;;;;;17.40;9.63;;;;;;;;;;5047214;28;20040;-60
2021/08/21 03:52:16;;;;;;;17.75;9.55;;;;;;;;;;5046537;28;20056;-61
2021/08/21 03:54:41;;;;;;;15.52;9.43;;;;;;;;;;5048938;28;20480;-61
2021/08/21 03:57:06;;;;;;;18.60;10.10;;;;;;;;;;5046190;28;20048;-60
2021/08/21 03:59:32;;;;;;;13.90;9.35;;;;;;;;;;5044385;28;20456;-61
2021/08/21 04:01:57;;;;;;;20.85;10.38;;;;;;;;;;5048049;28;20029;-60
2021/08/21 04:04:23;;;;;;;19.02;11.23;;;;;;;;;;5050924;28;20055;-60
2021/08/21 04:06:48;;;;;;;23.33;11.73;;;;;;;;;;5046325;28;20082;-60
2021/08/21 04:09:13;;;;;;;19.85;10.98;;;;;;;;;;5048155;28;20028;-60
2021/08/21 04:11:39;;;;;;;21.55;12.07;;;;;;;;;;5046089;28;20522;-60
2021/08/21 04:14:04;;;;;;;24.90;12.85;;;;;;;;;;5047630;28;20040;-60
2021/08/21 04:16:30;;;;;;;22.40;12.95;;;;;;;;;;5046706;28;20025;-60
2021/08/21 04:18:55;;;;;;;26.90;12.82;;;;;;;;;;5063071;28;20044;-60
2021/08/21 04:21:20;;;;;;;25.40;13.80;;;;;;;;;;5046137;28;20032;-60
2021/08/21 04:23:46;;;;;;;25.23;14.50;;;;;;;;;;5049694;28;20051;-61
2021/08/21 04:26:11;;;;;;;25.23;13.98;;;;;;;;;;5045424;28;20495;-60
2021/08/21 04:28:37;;;;;;;26.20;14.90;;;;;;;;;;5060873;28;20054;-60
2021/08/21 04:31:02;;;;;;;29.20;15.75;;;;;;;;;;5045169;28;20059;-60
2021/08/21 04:33:28;;;;;;;24.63;15.40;;;;;;;;;;5048938;28;20028;-60
2021/08/21 04:35:53;;;;;;;27.50;14.63;;;;;;;;;;5047481;28;20017;-60
2021/08/21 04:38:20;;;;;;;35.22;16.27;;;;;;;;;;5046628;28;20033;-60
2021/08/21 04:40:47;;;;;;;27.52;14.38;;;;;;;;;;5049254;28;20040;-60
2021/08/21 04:43:14;;;;;;;26.77;14.48;;;;;;;;;;5050018;28;20020;-60
2021/08/21 04:45:40;;;;;;;30.42;15.90;;;;;;;;;;5047569;28;20037;-60
2021/08/21 04:48:06;;;;;;;27.50;15.45;;;;;;;;;;5048147;28;20084;-60
2021/08/21 04:50:31;;;;;;;25.55;14.63;;;;;;;;;;5046814;28;20064;-60
2021/08/21 04:52:57;;;;;;;26.58;14.55;;;;;;;;;;5064712;28;20025;-60
2021/08/21 04:55:22;;;;;;;22.52;13.13;;;;;;;;;;5061796;28;20029;-60
2021/08/21 04:57:50;;;;;;;20.73;12.40;;;;;;;;;;5046640;28;20346;-61
2021/08/21 05:00:15;;;;;;;22.10;12.93;;;;;;;;;;5047147;28;20487;-60
2021/08/21 05:02:41;;;;;;;21.48;13.13;;;;;;;;;;5046423;28;20036;-61
2021/08/21 05:05:06;;;;;;;23.88;13.13;;;;;;;;;;5049184;28;20429;-60
2021/08/21 05:07:32;;;;;;;22.30;12.40;;;;;;;;;;5048722;28;20067;-60
2021/08/21 05:09:57;;;;;;;26.55;14.52;;;;;;;;;;5049322;28;20122;-60
2021/08/21 05:12:23;;;;;;;27.00;15.90;;;;;;;;;;5059450;28;20029;-60
2021/08/21 05:14:48;;;;;;;28.38;14.70;;;;;;;;;;5061512;28;20036;-60
2021/08/21 05:17:14;;;;;;;24.00;14.60;;;;;;;;;;5062827;28;20454;-60
2021/08/21 05:24:49;;;;;;;26.95;16.13;;;;;;;;;;5048864;28;20267;-60
2021/08/21 05:27:17;;;;;;;29.48;16.00;;;;;;;;;;5053856;28;20525;-60
2021/08/21 05:29:43;;;;;;;28.73;15.35;;;;;;;;;;5051627;28;20024;-60
2021/08/21 05:32:08;;;;;;;28.83;15.25;;;;;;;;;;5050254;28;20060;-60
2021/08/21 05:34:34;;;;;;;27.80;16.02;;;;;;;;;;5051881;28;20020;-60
2021/08/21 05:36:59;;;;;;;27.85;15.50;;;;;;;;;;5050280;28;20033;-60
2021/08/21 05:39:25;;;;;;;27.33;15.45;;;;;;;;;;5050172;28;20147;-59
2021/08/21 05:41:50;;;;;;;24.88;14.30;;;;;;;;;;5052594;28;20032;-59
2021/08/21 05:44:15;;;;;;;28.98;15.88;;;;;;;;;;5048647;28;20024;-59
2021/08/21 05:46:41;;;;;;;27.63;15.00;;;;;;;;;;5052042;28;20028;-59
2021/08/21 05:49:06;;;;;;;28.30;16.50;;;;;;;;;;5048036;28;20399;-59
2021/08/21 05:51:32;;;;;;;24.45;14.93;;;;;;;;;;5049945;28;20051;-59
2021/08/21 05:53:57;;;;;;;27.77;15.27;;;;;;;;;;5050473;28;20430;-60
2021/08/21 05:56:23;;;;;;;26.52;15.55;;;;;;;;;;5049119;28;20033;-60
2021/08/21 05:58:49;;;;;;;25.52;14.90;;;;;;;;;;5048803;28;20021;-59
2021/08/21 06:01:14;;;;;;;27.15;15.80;;;;;;;;;;5049226;28;20028;-59
2021/08/21 06:03:39;;;;;;;26.95;15.25;;;;;;;;;;5052310;28;20032;-59
2021/08/21 06:06:05;;;;;;;25.17;14.68;;;;;;;;;;5048923;28;20021;-59
2021/08/21 06:08:30;;;;;;;24.98;14.23;;;;;;;;;;5048059;28;20028;-59
2021/08/21 06:10:57;;;;;;;29.20;14.75;;;;;;;;;;5050229;28;20165;-59
2021/08/21 06:13:23;;;;;;;25.08;14.45;;;;;;;;;;5048780;28;20483;-59
2021/08/21 06:15:48;;;;;;;21.27;13.00;;;;;;;;;;5052140;28;20101;-59
2021/08/21 06:18:14;;;;;;;25.13;13.90;;;;;;;;;;5046740;28;20040;-59
2021/08/21 06:20:39;;;;;;;25.10;14.73;;;;;;;;;;5049707;28;20044;-59
2021/08/21 06:23:04;;;;;;;27.27;14.77;;;;;;;;;;5047801;28;20033;-60
2021/08/21 06:25:30;;;;;;;27.55;14.63;;;;;;;;;;5049100;28;20541;-59
2021/08/21 06:27:55;;;;;;;27.00;14.60;;;;;;;;;;5048507;28;20029;-59
2021/08/21 06:30:21;;;;;;;25.05;14.85;;;;;;;;;;5048628;28;20040;-59
2021/08/21 06:32:46;;;;;;;30.70;14.68;;;;;;;;;;5049801;28;20025;-60
2021/08/21 06:35:12;;;;;;;27.55;15.48;;;;;;;;;;5052121;28;20040;-59
2021/08/21 06:37:37;;;;;;;26.08;15.18;;;;;;;;;;5050082;28;20479;-59
2021/08/21 06:40:03;;;;;;;19.30;10.35;;;;;;;;;;5048980;28;20025;-59
2021/08/21 06:42:29;;;;;;;19.30;10.93;;;;;;;;;;5061664;28;20034;-59
2021/08/21 06:44:54;;;;;;;17.92;11.57;;;;;;;;;;5062864;28;20025;-59
2021/08/21 06:47:20;;;;;;;18.10;11.88;;;;;;;;;;5049839;28;20028;-59
2021/08/21 06:49:45;;;;;;;19.95;11.77;;;;;;;;;;5047483;28;20031;-59
2021/08/21 06:52:10;;;;;;;25.67;11.38;;;;;;;;;;5046577;28;20094;-59
2021/08/21 06:54:36;;;;;;;18.95;12.07;;;;;;;;;;5047045;28;20120;-59
2021/08/21 06:57:01;;;;;;;24.60;12.07;;;;;;;;;;5047300;28;20345;-59
2021/08/21 06:59:27;;;;;;;31.33;12.93;;;;;;;;;;5048147;28;20469;-59
2021/08/21 07:01:52;;;;;;;29.40;13.10;;;;;;;;;;5047418;28;20032;-59
2021/08/21 07:04:17;;;;;;;21.27;11.77;;;;;;;;;;5049802;28;20029;-59
2021/08/21 07:06:43;;;;;;;22.77;11.77;;;;;;;;;;5048494;28;20144;-59
2021/08/21 07:09:09;;;;;;;25.23;11.57;;;;;;;;;;5050663;28;20122;-59
2021/08/21 07:11:34;;;;;;;19.48;11.57;;;;;;;;;;5047971;28;20055;-59
2021/08/21 07:13:59;;;;;;;18.35;11.13;;;;;;;;;;5051332;28;20048;-59
2021/08/21 07:16:25;;;;;;;16.85;10.85;;;;;;;;;;5047882;28;20025;-59
2021/08/21 07:18:51;;;;;;;21.60;12.00;;;;;;;;;;5051358;28;20327;-59
2021/08/21 07:21:16;;;;;;;20.05;12.05;;;;;;;;;;5046125;28;20017;-59
2021/08/21 07:23:42;;;;;;;19.92;11.15;;;;;;;;;;5043813;28;20037;-59
2021/08/21 07:26:07;;;;;;;17.65;10.70;;;;;;;;;;5043188;28;20063;-59
2021/08/21 07:28:33;;;;;;;18.60;11.13;;;;;;;;;;5047326;28;20025;-59
2021/08/21 07:30:58;;;;;;;21.63;11.73;;;;;;;;;;5046487;28;20398;-59
2021/08/21 07:33:24;;;;;;;20.85;12.65;;;;;;;;;;5051700;28;20491;-59
2021/08/21 07:35:49;;;;;;;20.00;12.60;;;;;;;;;;5051146;28;20028;-59
2021/08/21 07:38:15;;;;;;;23.75;12.13;;;;;;;;;;5046176;28;20446;-59
2021/08/21 07:40:41;;;;;;;18.65;11.23;;;;;;;;;;5046816;28;20492;-59
2021/08/21 07:43:06;;;;;;;19.35;11.80;;;;;;;;;;5050079;28;20419;-59
2021/08/21 07:45:31;;;;;;;15.73;10.75;;;;;;;;;;5049851;28;20021;-59
2021/08/21 07:47:57;;;;;;;24.02;12.35;;;;;;;;;;5045401;28;20147;-61
2021/08/21 07:50:23;;;;;;;27.40;14.18;;;;;;;;;;5045683;28;20033;-61
2021/08/21 07:52:48;;;;;;;23.27;13.35;;;;;;;;;;5043701;28;20031;-60
2021/08/21 07:55:14;;;;;;;23.05;12.85;;;;;;;;;;5051615;28;20025;-60
2021/08/21 07:57:40;;;;;;;24.60;12.95;;;;;;;;;;5047079;28;20040;-60
2021/08/21 08:00:06;;;;;;;23.10;13.18;;;;;;;;;;5045376;28;20035;-60
2021/08/21 08:02:31;;;;;;;23.00;14.75;;;;;;;;;;5044642;28;20523;-60
2021/08/21 08:04:57;;;;;;;24.42;14.60;;;;;;;;;;5045378;28;20028;-60
2021/08/21 08:07:22;;;;;;;25.55;15.57;;;;;;;;;;5046675;28;20123;-60
2021/08/21 08:09:47;;;;;;;24.23;14.35;;;;;;;;;;5046615;28;20033;-61
2021/08/21 08:12:13;;;;;;;28.15;16.80;;;;;;;;;;5047105;28;20146;-60
2021/08/21 08:14:39;;;;;;;28.17;16.35;;;;;;;;;;5047246;28;20090;-61
2021/08/21 08:17:04;;;;;;;18.85;11.27;;;;;;;;;;5046222;28;20171;-60
2021/08/21 08:19:30;;;;;;;22.23;11.80;;;;;;;;;;5046028;28;20043;-60
2021/08/21 08:21:55;;;;;;;25.05;12.75;;;;;;;;;;5045067;28;20103;-60
2021/08/21 08:24:21;;;;;;;24.13;13.10;;;;;;;;;;5046697;28;20501;-59
2021/08/21 08:26:46;;;;;;;24.90;13.00;;;;;;;;;;5047477;28;20495;-59
2021/08/21 08:29:12;;;;;;;25.88;12.70;;;;;;;;;;5047709;28;20025;-59
2021/08/21 08:31:37;;;;;;;27.45;14.57;;;;;;;;;;5044897;28;20028;-59
2021/08/21 08:34:03;;;;;;;22.27;13.55;;;;;;;;;;5048349;28;20403;-59
2021/08/21 08:36:28;;;;;;;26.88;14.70;;;;;;;;;;5045995;28;20029;-59
2021/08/21 08:38:54;;;;;;;28.10;13.50;;;;;;;;;;5047876;28;20466;-59
2021/08/21 08:41:22;;;;;;;29.25;14.20;;;;;;;;;;5046508;28;20100;-59
2021/08/21 08:43:48;;;;;;;29.05;13.55;;;;;;;;;;5047886;28;20037;-59
2021/08/21 08:46:17;;;;;;;28.15;14.05;;;;;;;;;;5047186;28;20025;-59
2021/08/21 08:48:43;;;;;;;26.38;12.75;;;;;;;;;;5045308;28;20048;-59
2021/08/21 08:51:10;;;;;;;23.38;13.27;;;;;;;;;;5048149;28;20480;-60
2021/08/21 08:53:36;;;;;;;24.95;15.27;;;;;;;;;;5045764;28;20036;-60
2021/08/21 08:56:02;;;;;;;24.90;14.65;;;;;;;;;;5048873;28;20025;-60
2021/08/21 08:58:27;;;;;;;25.13;14.13;;;;;;;;;;5045554;28;20037;-60
2021/08/21 09:00:53;;;;;;;25.05;13.57;;;;;;;;;;5047580;28;20028;-59
2021/08/21 09:03:22;;;;;;;25.55;14.13;;;;;;;;;;5051559;28;20135;-60
2021/08/21 09:05:49;;;;;;;23.55;13.00;;;;;;;;;;5048226;28;20021;-60
2021/08/21 09:08:26;;;;;;;21.65;12.77;;;;;;;;;;5052409;28;20115;-60
2021/08/21 09:10:53;;;;;;;24.88;14.60;;;;;;;;;;5054484;28;20044;-59
2021/08/21 09:13:19;;;;;;;26.23;13.60;;;;;;;;;;5050153;28;20483;-60
2021/08/21 09:15:47;;;;;;;21.75;13.07;;;;;;;;;;5051334;28;20036;-60
2021/08/21 09:18:19;;;;;;;25.23;14.50;;;;;;;;;;5048430;28;20112;-60
2021/08/21 09:20:47;;;;;;;25.05;13.27;;;;;;;;;;5049983;28;20174;-60
2021/08/21 09:23:43;;;;;;;27.50;13.33;;;;;;;;;;5051016;28;20042;-60
2021/08/21 09:26:25;;;;;;;23.23;12.77;;;;;;;;;;5045924;28;20041;-60
2021/08/21 09:28:52;;;;;;;21.80;12.63;;;;;;;;;;5049952;28;20021;-60
2021/08/21 09:31:25;;;;;;;21.85;12.20;;;;;;;;;;5052426;28;20449;-60
2021/08/21 09:34:00;;;;;;;22.98;12.35;;;;;;;;;;5051344;28;20077;-61
2021/08/21 09:36:52;;;;;;;19.13;11.68;;;;;;;;;;5050350;28;20086;-61
2021/08/21 09:39:32;;;;;;;20.10;11.63;;;;;;;;;;5046900;28;20036;-61
2021/08/21 09:42:00;;;;;;;18.98;11.80;;;;;;;;;;5050159;28;20032;-61
2021/08/21 09:44:29;;;;;;;22.63;12.15;;;;;;;;;;5051328;28;20021;-60
2021/08/21 09:47:14;;;;;;;20.48;11.75;;;;;;;;;;5051833;28;20100;-60
2021/08/21 09:49:42;;;;;;;19.73;11.57;;;;;;;;;;5052205;28;20420;-60
2021/08/21 09:52:14;;;;;;;19.52;11.10;;;;;;;;;;5051342;28;20105;-61
2021/08/21 09:54:42;;;;;;;21.92;12.07;;;;;;;;;;5053272;28;20449;-61
2021/08/21 09:57:11;;;;;;;18.92;11.32;;;;;;;;;;5048250;28;20087;-60
2021/08/21 09:59:37;;;;;;;17.83;12.00;;;;;;;;;;5052862;28;20033;-60
2021/08/21 10:02:14;;;;;;;18.83;11.32;;;;;;;;;;5047834;28;20037;-60
2021/08/21 10:04:42;;;;;;;19.20;11.00;;;;;;;;;;5048101;28;20021;-60
2021/08/21 10:07:10;;;;;;;20.23;11.77;;;;;;;;;;5047906;28;20471;-61
2021/08/21 10:09:38;;;;;;;24.98;11.80;;;;;;;;;;5048431;28;20474;-60
2021/08/21 10:12:06;;;;;;;15.30;10.43;;;;;;;;;;5048866;28;20031;-60
2021/08/21 10:14:31;;;;;;;20.30;11.07;;;;;;;;;;5049205;28;20035;-59
2021/08/21 10:16:57;;;;;;;18.52;12.10;;;;;;;;;;5048017;28;20077;-60
2021/08/21 10:19:24;;;;;;;18.40;10.77;;;;;;;;;;5047899;28;20380;-60
2021/08/21 10:22:00;;;;;;;18.38;10.95;;;;;;;;;;5053598;28;20128;-59
2021/08/21 10:24:34;;;;;;;19.67;11.20;;;;;;;;;;5046646;28;20122;-59
2021/08/21 10:27:21;;;;;;;19.60;10.98;;;;;;;;;;5051372;28;20104;-59
2021/08/21 10:30:09;;;;;;;19.02;12.68;;;;;;;;;;5047319;28;20028;-60
2021/08/21 10:32:58;;;;;;;27.67;13.40;;;;;;;;;;5048868;28;20033;-59
2021/08/21 10:35:43;;;;;;;17.65;11.20;;;;;;;;;;5051732;28;20116;-60
2021/08/21 10:38:33;;;;;;;17.25;11.45;;;;;;;;;;5051108;28;20079;-59
2021/08/21 10:41:07;;;;;;;16.27;10.40;;;;;;;;;;5050199;28;20107;-59
2021/08/21 10:43:52;;;;;;;20.08;11.05;;;;;;;;;;5048860;28;20436;-59
2021/08/21 10:46:29;;;;;;;23.08;13.00;;;;;;;;;;5045484;28;20047;-60
2021/08/21 10:48:56;;;;;;;20.80;11.45;;;;;;;;;;5047982;28;20537;-61
2021/08/21 10:51:38;;;;;;;15.18;10.77;;;;;;;;;;5049708;28;20055;-60
2021/08/21 10:54:18;;;;;;;22.27;11.20;;;;;;;;;;5047850;28;20074;-62
2021/08/21 10:56:44;;;;;;;17.67;10.88;;;;;;;;;;5048535;28;20029;-61
2021/08/21 10:59:09;;;;;;;16.08;10.68;;;;;;;;;;5051638;28;20487;-61
2021/08/21 11:01:35;;;;;;;15.70;10.63;;;;;;;;;;5048097;28;20518;-60
2021/08/21 11:04:00;;;;;;;14.95;10.40;;;;;;;;;;5048705;28;20031;-61
2021/08/21 11:06:43;;;;;;;16.73;10.50;;;;;;;;;;5045843;28;20044;-61
2021/08/21 11:09:10;;;;;;;16.85;10.27;;;;;;;;;;5047178;28;20529;-61
2021/08/21 11:11:43;;;;;;;13.85;9.52;;;;;;;;;;5046914;28;20029;-61
2021/08/21 11:14:22;;;;;;;13.45;9.18;;;;;;;;;;5049883;28;20040;-62
2021/08/21 11:16:54;;;;;;;17.20;9.43;;;;;;;;;;5047721;28;20363;-60
2021/08/21 11:19:30;;;;;;;15.05;9.63;;;;;;;;;;5046416;28;21154;-60
2021/08/21 11:22:17;;;;;;;16.77;10.18;;;;;;;;;;5061924;28;20484;-61
2021/08/21 11:24:52;;;;;;;15.15;9.50;;;;;;;;;;5045775;28;20475;-61
2021/08/21 11:27:29;;;;;;;14.10;9.55;;;;;;;;;;5047951;28;20036;-61
2021/08/21 11:30:15;;;;;;;13.32;9.18;;;;;;;;;;5048176;28;20028;-61
2021/08/21 11:32:55;;;;;;;12.60;8.75;;;;;;;;;;5061747;28;20029;-62
2021/08/21 11:35:53;;;;;;;16.60;10.40;;;;;;;;;;5048881;28;20044;-62
2021/08/21 11:38:29;;;;;;;11.98;9.00;;;;;;;;;;5050290;28;20035;-62
2021/08/21 11:40:57;;;;;;;14.52;9.50;;;;;;;;;;5050003;28;20100;-61
2021/08/21 11:43:25;;;;;;;14.10;9.93;;;;;;;;;;5046917;28;20029;-62
2021/08/21 11:45:52;;;;;;;13.85;9.55;;;;;;;;;;5047469;28;20033;-62
2021/08/21 11:48:17;;;;;;;12.85;9.07;;;;;;;;;;5050065;28;20372;-62
2021/08/21 11:50:48;;;;;;;13.32;8.85;;;;;;;;;;5053372;28;20039;-62
2021/08/21 11:53:20;;;;;;;13.20;9.23;;;;;;;;;;5060034;28;20094;-62
2021/08/21 11:55:46;;;;;;;12.18;9.25;;;;;;;;;;5046186;28;20040;-62
2021/08/21 11:58:12;;;;;;;11.18;8.60;;;;;;;;;;5050913;28;20029;-62
2021/08/21 12:00:42;;;;;;;13.07;8.73;;;;;;;;;;5047081;28;20029;-63
2021/08/21 12:03:11;;;;;;;11.48;8.77;;;;;;;;;;5045340;28;20020;-62
2021/08/21 12:05:43;;;;;;;;;;;;;;;;;;5046930;28;20061;-62
2021/08/21 12:08:20;;;;;;;13.70;9.18;;;;;;;;;;5044336;28;20286;-62
2021/08/21 12:10:51;;;;;;;11.95;8.32;;;;;;;;;;5047183;28;20125;-62
2021/08/21 12:13:38;;;;;;;16.13;9.25;;;;;;;;;;5044828;28;20406;-62
2021/08/21 12:16:15;;;;;;;11.13;8.55;;;;;;;;;;5047073;28;20037;-63
2021/08/21 12:18:47;;;;;;;13.68;8.15;;;;;;;;;;5045869;28;20042;-62
2021/08/21 12:21:22;;;;;;;11.50;9.10;;;;;;;;;;5048276;28;20039;-62
2021/08/21 12:23:49;;;;;;;12.55;9.00;;;;;;;;;;5046839;28;20399;-62
2021/08/21 12:26:14;;;;;;;10.90;8.60;;;;;;;;;;5048231;28;20535;-62
2021/08/21 12:28:42;;;;;;;11.70;8.40;;;;;;;;;;5046635;28;20043;-63
2021/08/21 12:31:11;;;;;;;12.97;8.67;;;;;;;;;;5048622;28;20372;-62
2021/08/21 12:33:38;;;;;;;10.90;8.48;;;;;;;;;;5046472;28;20060;-62
2021/08/21 12:36:19;;;;;;;9.45;8.45;;;;;;;;;;5046038;28;20040;-61
2021/08/21 12:39:06;;;;;;;11.10;8.60;;;;;;;;;;5045329;28;20396;-64
2021/08/21 12:41:47;;;;;;;13.05;8.40;;;;;;;;;;5043477;28;20029;-64
2021/08/21 12:44:14;;;;;;;15.68;8.02;;;;;;;;;;5045705;28;20395;-64
2021/08/21 12:46:55;;;;;;;12.85;8.02;;;;;;;;;;5049082;28;20036;-64
2021/08/21 12:49:50;;;;;;;7.32;6.13;;;;;;;;;;5045918;28;20467;-64
2021/08/21 12:52:25;;;;;;;8.63;6.70;;;;;;;;;;5048425;28;20495;-64
2021/08/21 12:55:03;;;;;;;12.93;6.78;;;;;;;;;;5047404;28;20036;-64
2021/08/21 12:57:33;;;;;;;10.98;6.75;;;;;;;;;;5046745;28;20279;-64
2021/08/21 13:00:07;;;;;;;8.65;6.60;;;;;;;;;;5044953;28;20079;-64
2021/08/21 13:02:43;;;;;;;9.75;7.20;;;;;;;;;;5049202;28;20053;-64
2021/08/21 13:05:15;;;;;;;9.90;7.18;;;;;;;;;;5046816;28;20028;-64
2021/08/21 13:07:43;;;;;;;14.07;7.30;;;;;;;;;;5047867;28;20025;-64
2021/08/21 13:10:11;;;;;;;10.07;7.38;;;;;;;;;;5045861;28;20111;-64
2021/08/21 13:12:36;;;;;;;9.60;7.50;;;;;;;;;;5046718;28;20037;-64
2021/08/21 13:15:03;;;;;;;10.80;7.60;;;;;;;;;;5049855;28;20064;-64
2021/08/21 13:17:28;;;;;;;8.90;7.45;;;;;;;;;;5047088;28;20052;-64
2021/08/21 13:19:54;;;;;;;11.23;7.13;;;;;;;;;;5047519;28;20063;-64
2021/08/21 13:22:19;;;;;;;12.07;7.57;;;;;;;;;;5044919;28;20087;-64
2021/08/21 13:24:45;;;;;;;8.93;7.03;;;;;;;;;;5046303;28;20028;-64
2021/08/21 13:27:10;;;;;;;11.05;6.72;;;;;;;;;;5046838;28;20044;-65
2021/08/21 13:29:35;;;;;;;10.60;6.68;;;;;;;;;;5045428;28;20060;-65
2021/08/21 13:32:01;;;;;;;8.27;6.80;;;;;;;;;;5047015;28;20068;-65
2021/08/21 13:34:26;;;;;;;9.02;6.22;;;;;;;;;;5047783;28;20115;-64
2021/08/21 13:36:52;;;;;;;11.27;6.25;;;;;;;;;;5046081;28;20025;-64
2021/08/21 13:39:17;;;;;;;8.02;6.80;;;;;;;;;;5050382;28;20033;-65
2021/08/21 13:41:42;;;;;;;8.90;6.68;;;;;;;;;;5045654;28;20040;-64
2021/08/21 13:44:08;;;;;;;9.55;6.60;;;;;;;;;;5029965;28;20480;-65
2021/08/21 13:46:35;;;;;;;9.45;6.80;;;;;;;;;;5046587;28;20021;-65
2021/08/21 13:49:02;;;;;;;10.60;6.80;;;;;;;;;;5049000;28;20384;-65
2021/08/21 13:51:27;;;;;;;7.07;5.75;;;;;;;;;;5052053;28;20029;-64
2021/08/21 13:53:52;;;;;;;8.40;6.43;;;;;;;;;;5050276;28;20035;-65
2021/08/21 13:56:18;;;;;;;9.23;6.18;;;;;;;;;;5050913;28;20502;-65
2021/08/21 13:58:43;;;;;;;8.70;6.30;;;;;;;;;;5048635;28;20085;-65
2021/08/21 14:01:10;;;;;;;10.07;7.00;;;;;;;;;;5053003;28;20063;-65
2021/08/21 14:03:35;;;;;;;8.80;6.40;;;;;;;;;;5048170;28;20040;-65
2021/08/21 14:06:01;;;;;;;8.98;6.50;;;;;;;;;;5048090;28;20032;-65
2021/08/21 14:08:26;;;;;;;8.85;6.15;;;;;;;;;;5050872;28;20576;-64
2021/08/21 14:10:52;;;;;;;8.32;6.43;;;;;;;;;;5051213;28;20025;-65
2021/08/21 14:13:17;;;;;;;10.48;6.50;;;;;;;;;;5052118;28;20075;-65
2021/08/21 14:15:42;;;;;;;7.72;6.38;;;;;;;;;;5052179;28;20047;-65
2021/08/21 14:18:08;;;;;;;10.30;6.47;;;;;;;;;;5046130;28;20035;-65
2021/08/21 14:20:40;;;;;;;8.57;6.15;;;;;;;;;;5048945;28;20029;-64
2021/08/21 14:23:09;;;;;;;8.68;6.45;;;;;;;;;;5049284;28;20411;-65
2021/08/21 14:25:36;;;;;;;10.57;7.10;;;;;;;;;;5054093;28;20287;-64
2021/08/21 14:28:03;;;;;;;9.88;7.18;;;;;;;;;;5048373;28;20514;-64
2021/08/21 14:30:32;;;;;;;7.07;6.28;;;;;;;;;;5048876;28;20028;-65
2021/08/21 14:32:57;;;;;;;10.82;6.25;;;;;;;;;;5045601;28;20051;-65